Terminal Aerodrome Forecast
Issued by NWS

Home | Current Version | Previous Version | Graphics & Text | Print | Product List | Glossary On
Versions: 1 2 3 4 5 6 7 8 9 10 11 12 13 14
000
FTUS43 KMPX 171720
TAFAXN
TAF
KAXN 171720Z 1718/1818 33007KT P6SM SKC
     FM180100 30003KT P6SM FEW250
     FM180900 07008KT P6SM BKN250
     FM181500 10014G21KT P6SM BKN130=

USA.gov is the U.S. government's official web portal to all federal, state and local government web resources and services.